Time;durP1;ratioP1;P1;durP2;ratioP2;P2;SDS_P1;SDS_P2;PMS_P1;PMS_P2;Temp;Humidity;BMP_temperature;BMP_pressure;BME280_temperature;BME280_humidity;BME280_pressure;Samples;Min_cycle;Max_cycle;Signal;HPM_P1;HPM_P2
2022/11/29 00:00:10;;;;;;;52.05;26.25;;;;;;;7.45;100.00;94223.63;5058020;28;20032;-84
2022/11/29 00:02:35;;;;;;;51.90;25.15;;;;;;;7.99;100.00;94227.09;5058471;28;20033;-84
2022/11/29 00:05:01;;;;;;;45.70;24.92;;;;;;;8.03;100.00;94223.72;5056957;28;20082;-84
2022/11/29 00:07:26;;;;;;;53.47;25.50;;;;;;;7.80;100.00;94219.66;5058123;28;20025;-84
2022/11/29 00:09:52;;;;;;;52.00;25.42;;;;;;;8.02;100.00;94219.50;5058167;28;20025;-84
2022/11/29 00:12:17;;;;;;;50.97;26.05;;;;;;;7.76;100.00;94216.00;5058339;28;20352;-84
2022/11/29 00:14:42;;;;;;;49.95;24.70;;;;;;;8.07;100.00;94216.94;5058162;28;20123;-84
2022/11/29 00:17:08;;;;;;;49.92;24.95;;;;;;;7.59;100.00;94221.38;5057043;28;20090;-84
2022/11/29 00:19:34;;;;;;;62.75;24.20;;;;;;;7.32;100.00;94219.66;5058112;28;20037;-84
2022/11/29 00:22:01;;;;;;;46.97;23.88;;;;;;;7.96;100.00;94215.31;5056506;28;20029;-84
2022/11/29 00:24:26;;;;;;;56.42;27.80;;;;;;;7.11;100.00;94210.91;5056893;28;20037;-84
2022/11/29 00:26:52;;;;;;;58.42;28.38;;;;;;;7.25;100.00;94217.25;5056502;28;20342;-84
2022/11/29 00:29:17;;;;;;;55.20;27.42;;;;;;;7.34;100.00;94210.53;5056769;28;20118;-84
2022/11/29 00:31:43;;;;;;;53.28;27.23;;;;;;;7.47;100.00;94209.31;5057790;28;20032;-84
2022/11/29 00:34:10;;;;;;;57.97;29.48;;;;;;;7.55;100.00;94207.28;5056322;28;20036;-84
2022/11/29 00:36:35;;;;;;;56.80;29.13;;;;;;;7.92;100.00;94216.88;5056657;28;20043;-84
2022/11/29 00:39:03;;;;;;;50.92;26.83;;;;;;;8.14;100.00;94219.31;5056646;28;20450;-84
2022/11/29 00:41:28;;;;;;;53.22;26.00;;;;;;;8.19;100.00;94215.94;5056412;28;20037;-84
2022/11/29 00:43:54;;;;;;;51.92;27.08;;;;;;;8.22;100.00;94215.44;5056480;28;20090;-84
2022/11/29 00:46:19;;;;;;;66.45;27.90;;;;;;;7.77;100.00;94214.97;5057637;28;20043;-84
2022/11/29 00:48:45;;;;;;;59.10;27.42;;;;;;;7.66;100.00;94208.91;5056156;28;20035;-84
2022/11/29 00:51:11;;;;;;;50.17;25.80;;;;;;;8.09;100.00;94210.69;5055962;28;20029;-84
2022/11/29 00:53:36;;;;;;;53.10;24.85;;;;;;;8.14;100.00;94208.88;5056098;28;20036;-84
2022/11/29 00:56:02;;;;;;;49.28;25.27;;;;;;;8.19;100.00;94210.72;5039294;28;20035;-84
2022/11/29 00:58:28;;;;;;;48.70;26.30;;;;;;;8.27;100.00;94214.66;5039222;28;20039;-84
2022/11/29 01:00:54;;;;;;;53.03;28.05;;;;;;;8.28;100.00;94221.47;5055762;28;20024;-84
2022/11/29 01:03:20;;;;;;;56.00;29.45;;;;;;;8.34;100.00;94216.00;5055915;28;20436;-84
2022/11/29 01:05:45;;;;;;;52.80;25.92;;;;;;;8.30;100.00;94214.91;5056164;28;20040;-84
2022/11/29 01:08:11;;;;;;;50.88;28.45;;;;;;;8.33;100.00;94219.66;5057215;28;20032;-84
2022/11/29 01:10:37;;;;;;;57.50;25.17;;;;;;;7.85;100.00;94211.09;5055269;28;20057;-84
2022/11/29 01:13:02;;;;;;;43.30;21.73;;;;;;;8.07;100.00;94213.53;5056025;28;20064;-84
2022/11/29 01:15:28;;;;;;;38.45;17.45;;;;;;;7.44;100.00;94207.19;5056865;28;20025;-84
2022/11/29 01:17:53;;;;;;;49.40;21.80;;;;;;;7.68;100.00;94209.44;5057148;28;20036;-84
2022/11/29 01:20:19;;;;;;;40.88;19.73;;;;;;;7.66;100.00;94205.50;5055675;28;20032;-84
2022/11/29 01:22:44;;;;;;;35.78;17.10;;;;;;;7.46;100.00;94202.53;5055858;28;20033;-84
2022/11/29 01:25:11;;;;;;;42.45;19.52;;;;;;;7.50;100.00;94201.00;5055869;28;20446;-84
2022/11/29 01:27:37;;;;;;;40.85;19.25;;;;;;;7.83;100.00;94211.34;5055704;28;20025;-84
2022/11/29 01:30:04;;;;;;;38.17;18.52;;;;;;;7.88;100.00;94202.75;5056589;28;20323;-84
2022/11/29 01:32:29;;;;;;;38.40;19.58;;;;;;;8.01;100.00;94198.91;5055464;28;20029;-84
2022/11/29 01:34:55;;;;;;;55.97;29.73;;;;;;;8.19;100.00;94202.91;5056628;28;20035;-84
2022/11/29 01:37:20;;;;;;;53.42;27.35;;;;;;;8.07;100.00;94211.72;5056605;28;20029;-84
2022/11/29 01:39:45;;;;;;;45.92;25.38;;;;;;;8.17;100.00;94213.59;5056326;28;20017;-84
2022/11/29 01:42:12;;;;;;;45.92;22.73;;;;;;;7.75;100.00;94202.19;5055280;28;20032;-84
2022/11/29 01:44:38;;;;;;;41.50;21.80;;;;;;;7.97;100.00;94208.28;5055551;28;20029;-84
2022/11/29 01:47:03;;;;;;;55.97;28.30;;;;;;;7.43;100.00;94202.25;5055459;28;20488;-84
2022/11/29 01:49:35;;;;;;;49.10;24.45;;;;;;;7.69;100.00;94202.41;5055201;28;20032;-84
2022/11/29 01:52:13;;;;;;;43.25;22.15;;;;;;;7.93;100.00;94203.56;5055190;28;20388;-85
2022/11/29 01:54:53;;;;;;;52.67;25.67;;;;;;;8.12;100.00;94199.72;5055274;28;20131;-85
2022/11/29 01:57:19;;;;;;;70.70;32.47;;;;;;;7.27;100.00;94201.34;5055315;28;20103;-85
2022/11/29 01:59:47;;;;;;;69.55;32.35;;;;;;;7.49;100.00;94196.81;5038350;28;20035;-85
2022/11/29 02:02:22;;;;;;;74.68;33.50;;;;;;;7.56;100.00;94196.59;5055523;28;20438;-84
2022/11/29 02:04:48;;;;;;;67.28;33.38;;;;;;;7.82;100.00;94198.56;5038378;28;20119;-84
2022/11/29 02:07:14;;;;;;;66.47;32.15;;;;;;;7.85;100.00;94198.84;5038380;28;20128;-84
2022/11/29 02:09:39;;;;;;;70.57;33.47;;;;;;;7.36;100.00;94194.66;5055283;28;20060;-84
2022/11/29 02:12:32;;;;;;;66.85;31.95;;;;;;;7.79;100.00;94202.44;5056512;28;20072;-84
2022/11/29 02:15:10;;;;;;;72.50;32.77;;;;;;;8.00;100.00;94199.94;5056343;28;20082;-84
2022/11/29 02:17:41;;;;;;;64.03;31.20;;;;;;;7.91;100.00;94199.66;5055264;28;20036;-84
2022/11/29 02:20:32;;;;;;;64.57;32.72;;;;;;;8.16;100.00;94201.56;5056317;28;20075;-84
2022/11/29 02:23:31;;;;;;;65.80;33.22;;;;;;;8.18;100.00;94201.34;5058478;28;20040;-84
2022/11/29 02:26:29;;;;;;;59.30;30.48;;;;;;;7.93;100.00;94194.97;5058876;28;20570;-84
2022/11/29 02:29:32;;;;;;;56.88;28.67;;;;;;;8.26;100.00;94197.44;5047930;28;20064;-84
2022/11/29 02:31:57;;;;;;;62.10;30.77;;;;;;;7.82;100.00;94198.56;5059828;28;20028;-84
2022/11/29 02:34:52;;;;;;;61.13;29.67;;;;;;;7.47;100.00;94196.28;5058905;28;20032;-85
2022/11/29 02:37:21;;;;;;;71.97;34.15;;;;;;;7.30;100.00;94193.81;5059509;28;20091;-85
2022/11/29 02:40:22;;;;;;;75.10;36.65;;;;;;;6.90;100.00;94187.28;5058465;28;20107;-85
2022/11/29 02:43:06;;;;;;;81.20;38.38;;;;;;;7.54;100.00;94195.28;5042387;28;20132;-85
2022/11/29 02:45:37;;;;;;;64.22;32.13;;;;;;;7.17;100.00;94189.84;5069779;28;20043;-85
2022/11/29 02:48:22;;;;;;;72.40;34.22;;;;;;;7.17;100.00;94184.63;5061611;28;20029;-85
2022/11/29 02:50:53;;;;;;;49.33;25.17;;;;;;;7.22;100.00;94179.44;5064648;28;20331;-85
2022/11/29 02:53:38;;;;;;;51.45;25.38;;;;;;;7.24;100.00;94183.63;5062304;28;20075;-84
2022/11/29 02:56:06;;;;;;;59.03;26.13;;;;;;;7.42;100.00;94188.41;5066201;28;20072;-84
2022/11/29 02:58:44;;;;;;;58.00;27.33;;;;;;;7.83;100.00;94194.91;5058488;28;20029;-84
2022/11/29 03:01:31;;;;;;;64.70;28.27;;;;;;;7.27;100.00;94190.94;5059195;28;20434;-85
2022/11/29 03:04:20;;;;;;;59.35;28.65;;;;;;;6.87;100.00;94193.75;5058124;28;20041;-84
2022/11/29 03:06:50;;;;;;;62.92;28.50;;;;;;;7.30;100.00;94190.44;5058148;28;20319;-84
2022/11/29 03:09:24;;;;;;;50.58;24.70;;;;;;;7.72;100.00;94187.03;5059754;28;20446;-84
2022/11/29 03:12:18;;;;;;;58.63;27.83;;;;;;;7.91;100.00;94199.66;5058351;28;20084;-85
2022/11/29 03:14:55;;;;;;;53.38;27.27;;;;;;;7.80;100.00;94190.97;5057952;28;20137;-85
2022/11/29 03:17:27;;;;;;;54.92;27.65;;;;;;;7.99;100.00;94190.56;5041458;28;20028;-84
2022/11/29 03:20:17;;;;;;;58.88;27.38;;;;;;;7.47;100.00;94188.47;5069424;28;20039;-84
2022/11/29 03:22:46;;;;;;;58.42;28.73;;;;;;;7.35;100.00;94191.25;5079322;28;20056;-84
2022/11/29 03:25:28;;;;;;;61.63;30.20;;;;;;;7.68;100.00;94183.38;5079215;28;20115;-84
2022/11/29 03:28:32;;;;;;;61.35;31.00;;;;;;;7.70;100.00;94191.72;5077776;28;20028;-84
2022/11/29 03:31:30;;;;;;;60.65;28.80;;;;;;;7.80;100.00;94190.97;5067730;28;20048;-84
2022/11/29 03:34:26;;;;;;;60.63;29.40;;;;;;;7.32;100.00;94186.53;5077361;28;20048;-85
2022/11/29 03:37:00;;;;;;;59.33;29.05;;;;;;;7.29;100.00;94186.25;5079078;28;20031;-84
2022/11/29 03:39:49;;;;;;;56.70;29.92;;;;;;;7.02;100.00;94187.09;5077610;28;20020;-84
2022/11/29 03:42:20;;;;;;;56.60;28.90;;;;;;;7.44;100.00;94186.34;5060679;28;20044;-84
2022/11/29 03:44:55;;;;;;;58.88;29.55;;;;;;;7.36;100.00;94186.84;5078641;28;20337;-84
2022/11/29 03:47:27;;;;;;;60.45;28.65;;;;;;;7.27;100.00;94183.13;5077926;28;20035;-84
2022/11/29 03:49:53;;;;;;;64.82;29.95;;;;;;;7.23;100.00;94188.03;5078576;28;20036;-84
2022/11/29 03:52:43;;;;;;;64.47;30.73;;;;;;;7.31;100.00;94184.19;5060562;28;20093;-84
2022/11/29 03:55:11;;;;;;;64.35;30.75;;;;;;;6.91;100.00;94187.03;5077261;28;20031;-85
2022/11/29 03:57:43;;;;;;;61.85;30.60;;;;;;;7.42;100.00;94185.03;5078655;28;20373;-84
2022/11/29 04:00:11;;;;;;;66.23;31.30;;;;;;;7.69;100.00;94182.31;5076965;28;20120;-84
2022/11/29 04:02:59;;;;;;;62.95;30.35;;;;;;;7.84;100.00;94196.47;5077382;28;20331;-84
2022/11/29 04:05:48;;;;;;;61.60;30.52;;;;;;;7.70;100.00;94181.28;5078522;28;20119;-84
2022/11/29 04:08:32;;;;;;;64.47;30.73;;;;;;;7.49;100.00;94188.19;5078033;28;20032;-84
2022/11/29 04:11:22;;;;;;;62.25;30.23;;;;;;;7.30;100.00;94187.81;5076975;28;20099;-84
2022/11/29 04:14:18;;;;;;;68.50;32.13;;;;;;;7.07;100.00;94187.91;5060337;28;20032;-85
2022/11/29 04:17:05;;;;;;;67.70;33.78;;;;;;;7.16;100.00;94182.25;5078244;28;20036;-85
2022/11/29 04:19:36;;;;;;;65.53;31.17;;;;;;;7.29;100.00;94181.84;5078440;28;20417;-85
2022/11/29 04:22:14;;;;;;;73.72;32.50;;;;;;;6.76;100.00;94173.88;5078091;28;20043;-84
2022/11/29 04:25:11;;;;;;;76.95;34.20;;;;;;;6.67;100.00;94177.97;5060264;28;20036;-85
2022/11/29 04:27:43;;;;;;;64.53;32.20;;;;;;;7.08;100.00;94181.69;5077734;28;20031;-85
2022/11/29 04:30:09;;;;;;;78.40;33.13;;;;;;;6.26;100.00;94179.13;5076366;28;20353;-85
2022/11/29 04:32:56;;;;;;;63.17;31.65;;;;;;;6.88;100.00;94179.69;5076654;28;20032;-85
2022/11/29 04:35:39;;;;;;;69.07;30.38;;;;;;;6.81;100.00;94184.34;5077655;28;20040;-85
2022/11/29 04:38:50;;;;;;;65.50;29.35;;;;;;;6.88;100.00;94186.75;5077586;28;20060;-85
2022/11/29 04:41:52;;;;;;;68.15;33.13;;;;;;;6.76;100.00;94181.69;5076004;28;20461;-85
2022/11/29 04:44:45;;;;;;;69.88;29.55;;;;;;;6.65;100.00;94179.00;5077390;28;20437;-85
2022/11/29 04:47:28;;;;;;;71.70;27.88;;;;;;;6.46;100.00;94175.94;5077659;28;20040;-85
2022/11/29 04:50:22;;;;;;;67.72;28.85;;;;;;;7.30;100.00;94174.78;5077112;28;20028;-85
2022/11/29 04:53:14;;;;;;;69.25;29.20;;;;;;;7.34;100.00;94181.84;5077569;28;20107;-85
2022/11/29 04:56:07;;;;;;;66.88;28.20;;;;;;;6.99;100.00;94177.19;5076310;28;20036;-85
2022/11/29 04:58:45;;;;;;;65.68;30.02;;;;;;;6.86;100.00;94181.75;5077126;28;20437;-85
2022/11/29 05:01:31;;;;;;;72.57;30.02;;;;;;;6.92;100.00;94186.00;5075818;28;20025;-85
2022/11/29 05:04:22;;;;;;;69.05;31.73;;;;;;;6.86;100.00;94189.56;5075976;28;20036;-85
2022/11/29 05:06:57;;;;;;;76.18;32.72;;;;;;;6.97;100.00;94179.25;5054252;28;20048;-85
2022/11/29 05:09:31;;;;;;;93.55;39.22;;;;;;;6.40;100.00;94184.75;5076096;28;20394;-85
2022/11/29 05:12:05;;;;;;;106.00;40.55;;;;;;;6.24;100.00;94183.78;5075687;28;20115;-85
2022/11/29 05:14:35;;;;;;;84.97;38.28;;;;;;;6.43;100.00;94186.84;5075740;28;20024;-85
2022/11/29 05:17:22;;;;;;;84.43;40.55;;;;;;;6.40;100.00;94178.75;5075758;28;20032;-85
2022/11/29 05:20:24;;;;;;;76.18;36.22;;;;;;;6.98;100.00;94192.03;5076357;28;20035;-85
2022/11/29 05:23:08;;;;;;;75.60;32.10;;;;;;;7.22;100.00;94189.06;5076854;28;20071;-85
2022/11/29 05:25:39;;;;;;;76.75;32.20;;;;;;;7.21;100.00;94188.31;5076769;28;20086;-85
2022/11/29 05:28:49;;;;;;;65.82;30.13;;;;;;;7.31;100.00;94190.19;5076791;28;20032;-85
2022/11/29 05:31:33;;;;;;;76.30;31.65;;;;;;;6.93;100.00;94184.97;5037945;28;20074;-84
2022/11/29 05:34:33;;;;;;;70.03;31.75;;;;;;;6.30;100.00;94189.84;5074673;28;20106;-84
2022/11/29 05:37:10;;;;;;;80.80;34.08;;;;;;;6.40;100.00;94192.56;5076682;28;20032;-84
2022/11/29 05:39:57;;;;;;;80.80;33.50;;;;;;;6.95;100.00;94189.13;5076894;28;20040;-84
2022/11/29 05:42:28;;;;;;;72.78;32.38;;;;;;;7.23;100.00;94190.63;5076903;28;20040;-84
2022/11/29 05:45:02;;;;;;;78.75;32.35;;;;;;;7.16;100.00;94193.44;5076776;28;20349;-84
2022/11/29 05:47:44;;;;;;;73.10;36.30;;;;;;;6.71;100.00;94192.06;5075431;28;20454;-84
2022/11/29 05:50:27;;;;;;;79.40;35.45;;;;;;;6.76;100.00;94194.72;5075194;28;20048;-84
2022/11/29 05:52:56;;;;;;;87.82;37.53;;;;;;;7.05;100.00;94194.44;5058870;28;20028;-84
2022/11/29 05:55:33;;;;;;;74.95;35.47;;;;;;;7.30;100.00;94195.63;5076356;28;20028;-84
2022/11/29 05:58:05;;;;;;;85.50;38.22;;;;;;;7.31;100.00;94194.59;5079190;28;20077;-84
2022/11/29 06:00:57;;;;;;;96.25;40.05;;;;;;;7.25;100.00;94195.59;5074796;28;20057;-84
2022/11/29 06:03:36;;;;;;;209.70;43.75;;;;;;;7.24;100.00;94191.44;5069127;28;20414;-84
2022/11/29 06:06:13;;;;;;;90.70;39.95;;;;;;;7.02;100.00;94192.31;5079234;28;20509;-84
2022/11/29 06:08:51;;;;;;;83.45;40.05;;;;;;;7.00;100.00;94194.38;5079401;28;20460;-84
2022/11/29 06:11:30;;;;;;;87.85;41.75;;;;;;;6.92;100.00;94190.41;5079254;28;20029;-84
2022/11/29 06:14:05;;;;;;;95.35;41.05;;;;;;;6.04;100.00;94198.16;5079146;28;20028;-84
2022/11/29 06:16:37;;;;;;;101.60;43.55;;;;;;;5.56;100.00;94197.78;5059142;28;20040;-84
2022/11/29 06:19:24;;;;;;;123.25;46.13;;;;;;;5.29;100.00;94192.44;5077426;28;20041;-84
2022/11/29 06:21:49;;;;;;;99.95;45.55;;;;;;;4.82;100.00;94191.75;5080016;28;20416;-84
2022/11/29 06:24:34;;;;;;;120.30;50.75;;;;;;;4.76;100.00;94192.69;5080278;28;20072;-84
2022/11/29 06:27:39;;;;;;;116.95;49.33;;;;;;;5.41;100.00;94187.94;5078808;28;20056;-85
2022/11/29 06:30:13;;;;;;;116.72;50.60;;;;;;;5.65;100.00;94190.34;5067822;28;20036;-84
2022/11/29 06:32:42;;;;;;;122.18;49.85;;;;;;;5.40;100.00;94193.41;5078703;28;20391;-84
2022/11/29 06:35:14;;;;;;;101.80;48.33;;;;;;;5.74;100.00;94188.13;5078632;28;20438;-84
2022/11/29 06:37:44;;;;;;;125.53;49.75;;;;;;;5.80;100.00;94198.34;5079817;28;20392;-86
2022/11/29 06:40:11;;;;;;;117.22;49.70;;;;;;;5.51;100.00;94195.91;5078632;28;20559;-84
2022/11/29 06:42:37;;;;;;;111.78;49.80;;;;;;;5.60;100.00;94198.09;5078439;28;20446;-84
2022/11/29 06:45:03;;;;;;;112.28;48.47;;;;;;;5.50;100.00;94198.72;5061978;28;20032;-84
2022/11/29 06:47:52;;;;;;;119.93;50.15;;;;;;;5.30;100.00;94202.59;5078590;28;20046;-84
2022/11/29 06:50:38;;;;;;;112.47;48.15;;;;;;;5.65;100.00;94204.13;5078080;28;20035;-84
2022/11/29 06:53:12;;;;;;;109.85;48.28;;;;;;;5.94;100.00;94208.41;5079835;28;20048;-84
2022/11/29 06:55:58;;;;;;;107.68;48.35;;;;;;;6.03;100.00;94209.59;5079800;28;20032;-84
2022/11/29 06:58:26;;;;;;;101.00;45.88;;;;;;;6.30;100.00;94210.66;5061726;28;20036;-84
2022/11/29 07:01:11;;;;;;;103.43;47.53;;;;;;;6.00;100.00;94209.25;5079413;28;20451;-84
2022/11/29 07:04:24;;;;;;;92.90;45.55;;;;;;;6.47;100.00;94216.56;5079354;28;20115;-85
2022/11/29 07:06:49;;;;;;;96.03;43.45;;;;;;;6.64;100.00;94210.47;5069339;28;20067;-84
2022/11/29 07:09:17;;;;;;;93.75;41.35;;;;;;;6.63;100.00;94214.91;5077113;28;20075;-84
2022/11/29 07:11:44;;;;;;;103.53;42.15;;;;;;;6.39;100.00;94209.19;5078089;28;20131;-84
2022/11/29 07:14:10;;;;;;;94.70;42.13;;;;;;;6.64;100.00;94207.88;5077793;28;20033;-84
2022/11/29 07:16:44;;;;;;;93.93;43.60;;;;;;;6.40;100.00;94212.56;5079377;28;20029;-85
2022/11/29 07:20:07;;;;;;;87.38;42.08;;;;;;;6.56;100.00;94211.69;5079081;28;20173;-84
2022/11/29 07:22:45;;;;;;;94.10;41.55;;;;;;;6.35;100.00;94221.09;5056739;28;20024;-84
2022/11/29 07:25:23;;;;;;;97.57;42.55;;;;;;;6.47;100.00;94213.97;5025753;28;20470;-84
2022/11/29 07:28:01;;;;;;;93.13;43.42;;;;;;;6.49;100.00;94217.09;5042535;28;20114;-84
2022/11/29 07:30:30;;;;;;;99.53;42.67;;;;;;;6.34;100.00;94212.53;5057496;28;20381;-84
2022/11/29 07:33:06;;;;;;;88.95;42.13;;;;;;;6.46;100.00;94211.63;5058797;28;20040;-84
2022/11/29 07:35:49;;;;;;;94.32;42.88;;;;;;;6.51;100.00;94212.44;5059030;28;20044;-84
2022/11/29 07:38:48;;;;;;;88.63;41.63;;;;;;;6.76;100.00;94207.75;5058936;28;20120;-84
2022/11/29 07:41:23;;;;;;;90.82;41.38;;;;;;;6.99;100.00;94209.22;5049514;28;20355;-84
2022/11/29 07:44:13;;;;;;;84.68;40.50;;;;;;;6.62;100.00;94215.94;5057360;28;20083;-84
2022/11/29 07:46:38;;;;;;;80.80;37.90;;;;;;;6.67;100.00;94212.59;5057160;28;20071;-84
2022/11/29 07:49:04;;;;;;;70.57;34.72;;;;;;;6.96;100.00;94214.94;5057432;28;20477;-84
2022/11/29 07:51:30;;;;;;;69.47;35.47;;;;;;;6.64;100.00;94213.88;5056948;28;20442;-84
2022/11/29 07:53:55;;;;;;;79.13;38.35;;;;;;;6.52;100.00;94213.22;5057346;28;20094;-84
2022/11/29 07:56:21;;;;;;;94.07;40.10;;;;;;;6.45;100.00;94212.63;5057025;28;20037;-84
2022/11/29 07:58:46;;;;;;;277.42;46.80;;;;;;;6.05;100.00;94215.34;5057258;28;20128;-84
2022/11/29 08:01:12;;;;;;;368.70;53.35;;;;;;;5.96;100.00;94216.75;5056836;28;20033;-84
2022/11/29 08:03:37;;;;;;;76.28;37.63;;;;;;;6.73;100.00;94216.03;5056947;28;20347;-84
2022/11/29 08:06:03;;;;;;;177.05;43.35;;;;;;;6.50;100.00;94215.28;5058096;28;20039;-85
2022/11/29 08:08:28;;;;;;;102.63;42.10;;;;;;;5.89;100.00;94213.53;5056859;28;20272;-84
2022/11/29 08:10:54;;;;;;;83.05;40.05;;;;;;;5.86;100.00;94216.59;5056946;28;20508;-84
2022/11/29 08:13:20;;;;;;;116.97;42.70;;;;;;;6.21;100.00;94218.09;5057870;28;20028;-85
2022/11/29 08:15:46;;;;;;;109.80;42.03;;;;;;;6.46;100.00;94214.22;5058056;28;20396;-85
2022/11/29 08:18:12;;;;;;;147.52;43.38;;;;;;;6.87;100.00;94217.19;5056646;28;20039;-84
2022/11/29 08:20:40;;;;;;;86.32;41.33;;;;;;;7.10;100.00;94219.72;5055322;28;20027;-85
2022/11/29 08:23:06;;;;;;;84.97;39.05;;;;;;;7.30;100.00;94224.31;5057767;28;20029;-85
2022/11/29 08:25:31;;;;;;;106.80;39.60;;;;;;;7.56;100.00;94232.31;5056824;28;20028;-85
2022/11/29 08:28:04;;;;;;;89.88;38.55;;;;;;;7.74;100.00;94226.66;5057986;28;20438;-85
2022/11/29 08:30:30;;;;;;;83.80;38.72;;;;;;;7.69;100.00;94226.66;5056250;28;20434;-85
2022/11/29 08:32:55;;;;;;;76.88;37.08;;;;;;;7.68;100.00;94225.09;5056370;28;20036;-85
2022/11/29 08:35:21;;;;;;;95.03;38.17;;;;;;;6.95;100.00;94228.97;5056627;28;20090;-84
2022/11/29 08:37:47;;;;;;;77.65;37.65;;;;;;;7.48;100.00;94228.34;5057448;28;20041;-85
2022/11/29 08:40:13;;;;;;;75.13;37.03;;;;;;;7.17;100.00;94226.31;5055941;28;20036;-84
2022/11/29 08:42:39;;;;;;;74.80;36.03;;;;;;;7.17;100.00;94230.72;5057169;28;20040;-85
2022/11/29 08:45:05;;;;;;;74.18;34.55;;;;;;;7.86;100.00;94231.72;5057597;28;20039;-84
2022/11/29 08:47:34;;;;;;;82.55;37.97;;;;;;;8.02;100.00;94226.56;5055854;28;20036;-84
2022/11/29 08:50:00;;;;;;;74.93;35.10;;;;;;;7.72;100.00;94233.19;5055545;28;20033;-84
2022/11/29 08:55:10;;;;;;;77.85;35.97;;;;;;;7.89;100.00;94238.22;5056937;28;20066;-84
2022/11/29 08:57:35;;;;;;;75.35;37.78;;;;;;;8.11;100.00;94242.53;5057080;28;20028;-85
2022/11/29 09:00:01;;;;;;;71.55;33.80;;;;;;;7.84;100.00;94243.44;5056721;28;20585;-84
2022/11/29 09:02:27;;;;;;;92.57;41.47;;;;;;;8.04;100.00;94242.75;5055711;28;20072;-85
2022/11/29 09:04:52;;;;;;;78.13;35.67;;;;;;;8.09;100.00;94244.59;5056033;28;20048;-87
2022/11/29 09:07:18;;;;;;;76.68;33.08;;;;;;;8.29;100.00;94249.91;5062163;28;20033;-87
2022/11/29 09:09:43;;;;;;;78.43;34.58;;;;;;;7.92;100.00;94242.97;5077128;28;20032;-85
2022/11/29 09:12:08;;;;;;;89.30;38.53;;;;;;;8.00;100.00;94246.91;5075550;28;20038;-84
2022/11/29 09:14:34;;;;;;;87.22;40.88;;;;;;;8.09;100.00;94245.38;5077188;28;20081;-84
2022/11/29 09:17:00;;;;;;;77.90;33.40;;;;;;;7.85;100.00;94253.63;5076809;28;20036;-85
2022/11/29 09:19:26;;;;;;;75.43;34.67;;;;;;;7.88;100.00;94255.72;5075951;28;20032;-84
2022/11/29 09:21:52;;;;;;;82.22;36.45;;;;;;;8.10;100.00;94262.59;5075699;28;20029;-84
2022/11/29 09:24:19;;;;;;;70.22;31.55;;;;;;;7.92;100.00;94256.78;5075508;28;20033;-85
2022/11/29 09:26:47;;;;;;;71.95;30.85;;;;;;;8.24;100.00;94262.13;5076711;28;20025;-85
2022/11/29 09:29:14;;;;;;;76.15;31.38;;;;;;;6.91;100.00;94269.56;5059346;28;20039;-85
2022/11/29 09:31:40;;;;;;;66.65;29.13;;;;;;;7.18;100.00;94266.97;5075113;28;20024;-84
2022/11/29 09:34:05;;;;;;;92.90;31.48;;;;;;;7.39;100.00;94271.53;5075644;28;20403;-84
2022/11/29 09:36:31;;;;;;;69.20;30.27;;;;;;;7.13;100.00;94264.31;5075346;28;20033;-84
2022/11/29 09:39:02;;;;;;;72.00;31.40;;;;;;;7.49;100.00;94269.81;5075585;28;20040;-84
2022/11/29 09:41:30;;;;;;;72.05;30.25;;;;;;;7.47;100.00;94266.69;5061680;28;20060;-84
2022/11/29 09:44:05;;;;;;;72.10;31.35;;;;;;;7.49;100.00;94271.63;5056778;28;20033;-84
2022/11/29 09:46:50;;;;;;;72.03;32.10;;;;;;;7.88;100.00;94267.97;5056408;28;20033;-84
2022/11/29 09:49:43;;;;;;;73.00;30.33;;;;;;;8.02;100.00;94266.47;5055208;28;20457;-85
2022/11/29 09:52:16;;;;;;;68.72;29.10;;;;;;;7.11;100.00;94268.97;5056784;28;20076;-85
2022/11/29 09:55:11;;;;;;;82.35;31.08;;;;;;;7.35;100.00;94268.66;5056694;28;20040;-85
2022/11/29 09:57:37;;;;;;;61.97;27.50;;;;;;;7.62;100.00;94268.59;5055218;28;20524;-85
2022/11/29 10:00:05;;;;;;;63.17;27.85;;;;;;;7.28;100.00;94263.66;5056065;28;20033;-85
2022/11/29 10:02:47;;;;;;;71.30;28.50;;;;;;;7.31;100.00;94265.75;5038592;28;20024;-85
2022/11/29 10:05:21;;;;;;;62.28;27.58;;;;;;;7.79;100.00;94259.81;5055239;28;20433;-84
2022/11/29 10:07:52;;;;;;;55.85;26.55;;;;;;;7.10;100.00;94262.19;5055410;28;20056;-85
2022/11/29 10:10:24;;;;;;;65.45;27.80;;;;;;;6.79;100.00;94259.31;5056281;28;20068;-84
2022/11/29 10:13:19;;;;;;;64.30;27.60;;;;;;;7.21;100.00;94263.06;5038455;28;20029;-85
2022/11/29 10:15:46;;;;;;;49.17;22.98;;;;;;;6.91;100.00;94257.34;5055121;28;20041;-85
2022/11/29 10:18:19;;;;;;;52.95;24.35;;;;;;;6.71;100.00;94257.13;5055041;28;20032;-84
2022/11/29 10:20:45;;;;;;;;;;;;;;;7.73;100.00;94253.78;5055347;28;20029;-85
2022/11/29 10:23:25;;;;;;;45.53;20.52;;;;;;;7.43;100.00;94257.75;5056411;28;19930;-84
2022/11/29 10:25:55;;;;;;;38.38;18.90;;;;;;;7.18;100.00;94256.56;5056216;28;20037;-85
2022/11/29 10:28:24;;;;;;;29.40;14.52;;;;;;;7.15;100.00;94251.81;5056430;28;20041;-85
2022/11/29 10:30:53;;;;;;;39.88;18.92;;;;;;;7.20;100.00;94246.66;5054881;28;20099;-85
2022/11/29 10:33:26;;;;;;;31.95;15.85;;;;;;;7.30;100.00;94245.94;5056430;28;20036;-85
2022/11/29 10:35:56;;;;;;;26.50;13.68;;;;;;;7.46;100.00;94244.25;5054923;28;20021;-84
2022/11/29 10:38:23;;;;;;;37.33;17.98;;;;;;;7.25;100.00;94245.13;5056124;28;20029;-84
2022/11/29 10:40:53;;;;;;;33.28;16.42;;;;;;;7.79;100.00;94241.56;5055896;28;20078;-85
2022/11/29 10:43:18;;;;;;;61.53;32.72;;;;;;;7.75;100.00;94241.31;5055822;28;20029;-85
2022/11/29 10:45:49;;;;;;;54.40;24.35;;;;;;;7.46;100.00;94240.84;5058767;28;20037;-85
2022/11/29 10:48:33;;;;;;;69.38;24.77;;;;;;;7.91;100.00;94238.78;5058567;28;20036;-84
2022/11/29 10:50:59;;;;;;;77.75;23.17;;;;;;;7.11;100.00;94237.72;5058590;28;20151;-85
2022/11/29 10:53:27;;;;;;;182.55;29.05;;;;;;;7.27;100.00;94237.84;5058694;28;20438;-84
2022/11/29 10:55:55;;;;;;;59.30;25.73;;;;;;;7.11;100.00;94229.13;5058215;28;20094;-84
2022/11/29 10:58:26;;;;;;;52.63;24.52;;;;;;;7.84;100.00;94235.59;5059503;28;20032;-85
2022/11/29 11:00:59;;;;;;;53.67;24.95;;;;;;;8.09;100.00;94227.09;5059564;28;20472;-85
2022/11/29 11:03:40;;;;;;;61.05;26.50;;;;;;;7.99;100.00;94230.47;5059377;28;20358;-84
2022/11/29 11:06:24;;;;;;;51.00;24.58;;;;;;;8.17;100.00;94234.47;5058242;28;20025;-85
2022/11/29 11:09:10;;;;;;;64.75;26.10;;;;;;;7.58;100.00;94231.03;5059219;28;20101;-85
2022/11/29 11:11:37;;;;;;;52.08;25.15;;;;;;;7.44;100.00;94235.88;5058074;28;20025;-85
2022/11/29 11:14:30;;;;;;;67.28;29.88;;;;;;;7.77;100.00;94225.41;5058062;28;20044;-85
2022/11/29 11:17:13;;;;;;;70.78;29.92;;;;;;;8.03;100.00;94230.75;5057802;28;20045;-85
2022/11/29 11:19:39;;;;;;;55.07;24.83;;;;;;;7.81;100.00;94226.44;5059094;28;20090;-85
2022/11/29 11:22:04;;;;;;;55.50;24.67;;;;;;;7.69;100.00;94228.50;5057745;28;20029;-85
2022/11/29 11:24:31;;;;;;;422.15;33.97;;;;;;;6.84;100.00;94229.94;5057855;28;20422;-85
2022/11/29 11:26:57;;;;;;;50.90;23.92;;;;;;;6.44;100.00;94226.66;5057755;28;20032;-85
2022/11/29 11:29:33;;;;;;;53.90;24.02;;;;;;;7.52;100.00;94215.59;5059238;28;20033;-85
2022/11/29 11:31:59;;;;;;;71.28;33.30;;;;;;;7.70;100.00;94228.22;5057602;28;20067;-86
2022/11/29 11:34:28;;;;;;;83.00;38.95;;;;;;;7.82;100.00;94235.06;5041212;28;20427;-86
2022/11/29 11:37:14;;;;;;;79.30;36.92;;;;;;;8.00;100.00;94229.41;5085576;28;20456;-84
2022/11/29 11:39:40;;;;;;;89.93;40.40;;;;;;;8.11;100.00;94232.09;5074449;28;20051;-85
2022/11/29 11:44:55;;;;;;;35.97;17.52;;;;;;;7.31;100.00;94231.09;5077683;28;20040;-86
2022/11/29 11:47:31;;;;;;;42.40;19.65;;;;;;;7.93;100.00;94228.88;5077461;28;20036;-89
2022/11/29 11:50:02;;;;;;;34.78;18.27;;;;;;;7.86;100.00;94231.72;5061073;28;20082;-86
2022/11/29 11:52:47;;;;;;;37.00;17.70;;;;;;;7.77;100.00;94235.81;5078464;28;20051;-87
2022/11/29 11:55:22;;;;;;;30.40;14.98;;;;;;;7.35;100.00;94229.56;5060962;28;20119;-83